sensor_id;sensor_type;location;lat;lon;timestamp;temperature;humidity
67157;SHT31;54086;50.126;8.710;2022-08-19T00:00:16;22.37;67.98
67157;SHT31;54086;50.126;8.710;2022-08-19T00:02:42;22.36;67.99
67157;SHT31;54086;50.126;8.710;2022-08-19T00:05:10;22.33;68.09
67157;SHT31;54086;50.126;8.710;2022-08-19T00:07:36;22.28;68.17
67157;SHT31;54086;50.126;8.710;2022-08-19T00:10:04;22.33;68.16
67157;SHT31;54086;50.126;8.710;2022-08-19T00:12:30;22.31;68.10
67157;SHT31;54086;50.126;8.710;2022-08-19T00:14:55;22.27;68.37
67157;SHT31;54086;50.126;8.710;2022-08-19T00:17:21;22.33;68.31
67157;SHT31;54086;50.126;8.710;2022-08-19T00:19:46;22.30;68.25
67157;SHT31;54086;50.126;8.710;2022-08-19T00:22:12;22.22;68.55
67157;SHT31;54086;50.126;8.710;2022-08-19T00:24:37;22.27;68.42
67157;SHT31;54086;50.126;8.710;2022-08-19T00:27:04;22.22;68.52
67157;SHT31;54086;50.126;8.710;2022-08-19T00:29:29;22.31;68.31
67157;SHT31;54086;50.126;8.710;2022-08-19T00:31:56;22.25;68.46
67157;SHT31;54086;50.126;8.710;2022-08-19T00:34:24;22.20;68.72
67157;SHT31;54086;50.126;8.710;2022-08-19T00:36:50;22.20;68.69
67157;SHT31;54086;50.126;8.710;2022-08-19T00:39:16;22.16;68.84
67157;SHT31;54086;50.126;8.710;2022-08-19T00:41:43;22.13;68.98
67157;SHT31;54086;50.126;8.710;2022-08-19T00:44:13;22.07;69.19
67157;SHT31;54086;50.126;8.710;2022-08-19T00:46:42;22.08;69.07
67157;SHT31;54086;50.126;8.710;2022-08-19T00:49:18;22.08;69.09
67157;SHT31;54086;50.126;8.710;2022-08-19T00:51:47;22.10;69.16
67157;SHT31;54086;50.126;8.710;2022-08-19T00:54:13;22.11;69.17
67157;SHT31;54086;50.126;8.710;2022-08-19T00:56:40;22.10;69.14
67157;SHT31;54086;50.126;8.710;2022-08-19T00:59:06;22.08;69.21
67157;SHT31;54086;50.126;8.710;2022-08-19T01:01:39;22.06;69.23
67157;SHT31;54086;50.126;8.710;2022-08-19T01:04:04;22.08;69.17
67157;SHT31;54086;50.126;8.710;2022-08-19T01:06:31;22.13;69.09
67157;SHT31;54086;50.126;8.710;2022-08-19T01:08:58;22.14;68.97
67157;SHT31;54086;50.126;8.710;2022-08-19T01:11:23;22.11;69.10
67157;SHT31;54086;50.126;8.710;2022-08-19T01:13:50;22.11;69.07
67157;SHT31;54086;50.126;8.710;2022-08-19T01:16:20;22.14;68.94
67157;SHT31;54086;50.126;8.710;2022-08-19T01:18:46;22.21;68.80
67157;SHT31;54086;50.126;8.710;2022-08-19T01:21:32;22.24;68.69
67157;SHT31;54086;50.126;8.710;2022-08-19T01:23:59;22.22;68.69
67157;SHT31;54086;50.126;8.710;2022-08-19T01:26:25;22.22;68.57
67157;SHT31;54086;50.126;8.710;2022-08-19T01:28:54;22.31;68.38
67157;SHT31;54086;50.126;8.710;2022-08-19T01:31:22;22.25;68.47
67157;SHT31;54086;50.126;8.710;2022-08-19T01:33:49;22.24;68.58
67157;SHT31;54086;50.126;8.710;2022-08-19T01:36:23;22.22;68.53
67157;SHT31;54086;50.126;8.710;2022-08-19T01:38:50;22.27;68.55
67157;SHT31;54086;50.126;8.710;2022-08-19T01:41:16;22.25;68.49
67157;SHT31;54086;50.126;8.710;2022-08-19T01:43:42;22.14;68.68
67157;SHT31;54086;50.126;8.710;2022-08-19T01:46:07;22.18;68.65
67157;SHT31;54086;50.126;8.710;2022-08-19T01:48:35;22.22;68.56
67157;SHT31;54086;50.126;8.710;2022-08-19T01:51:01;22.21;68.61
67157;SHT31;54086;50.126;8.710;2022-08-19T01:53:27;22.20;68.68
67157;SHT31;54086;50.126;8.710;2022-08-19T01:55:52;22.20;68.73
67157;SHT31;54086;50.126;8.710;2022-08-19T01:58:24;22.16;68.78
67157;SHT31;54086;50.126;8.710;2022-08-19T02:00:51;22.16;68.85
67157;SHT31;54086;50.126;8.710;2022-08-19T02:03:16;22.11;68.93
67157;SHT31;54086;50.126;8.710;2022-08-19T02:05:43;22.11;68.99
67157;SHT31;54086;50.126;8.710;2022-08-19T02:08:09;22.13;69.01
67157;SHT31;54086;50.126;8.710;2022-08-19T02:10:39;22.10;69.07
67157;SHT31;54086;50.126;8.710;2022-08-19T02:13:04;22.08;69.16
67157;SHT31;54086;50.126;8.710;2022-08-19T02:15:30;22.04;69.33
67157;SHT31;54086;50.126;8.710;2022-08-19T02:17:55;22.06;69.29
67157;SHT31;54086;50.126;8.710;2022-08-19T02:20:21;22.07;69.29
67157;SHT31;54086;50.126;8.710;2022-08-19T02:22:47;22.13;69.15
67157;SHT31;54086;50.126;8.710;2022-08-19T02:25:13;22.11;69.20
67157;SHT31;54086;50.126;8.710;2022-08-19T02:27:40;22.11;69.29
67157;SHT31;54086;50.126;8.710;2022-08-19T02:30:09;22.06;69.49
67157;SHT31;54086;50.126;8.710;2022-08-19T02:32:34;22.07;69.44
67157;SHT31;54086;50.126;8.710;2022-08-19T02:35:00;22.10;69.44
67157;SHT31;54086;50.126;8.710;2022-08-19T02:37:26;22.13;69.36
67157;SHT31;54086;50.126;8.710;2022-08-19T02:40:10;22.18;69.23
67157;SHT31;54086;50.126;8.710;2022-08-19T02:42:36;22.17;69.24
67157;SHT31;54086;50.126;8.710;2022-08-19T02:45:01;22.08;69.54
67157;SHT31;54086;50.126;8.710;2022-08-19T02:47:27;22.14;69.48
67157;SHT31;54086;50.126;8.710;2022-08-19T02:49:52;22.10;69.58
67157;SHT31;54086;50.126;8.710;2022-08-19T02:52:17;22.07;69.78
67157;SHT31;54086;50.126;8.710;2022-08-19T02:54:43;21.98;70.03
67157;SHT31;54086;50.126;8.710;2022-08-19T02:57:09;22.00;70.03
67157;SHT31;54086;50.126;8.710;2022-08-19T02:59:34;22.01;70.01
67157;SHT31;54086;50.126;8.710;2022-08-19T03:02:00;22.04;70.06
67157;SHT31;54086;50.126;8.710;2022-08-19T03:04:25;22.03;70.20
67157;SHT31;54086;50.126;8.710;2022-08-19T03:06:51;22.10;70.02
67157;SHT31;54086;50.126;8.710;2022-08-19T03:09:18;22.10;70.17
67157;SHT31;54086;50.126;8.710;2022-08-19T03:11:44;22.07;70.19
67157;SHT31;54086;50.126;8.710;2022-08-19T03:14:09;22.03;70.28
67157;SHT31;54086;50.126;8.710;2022-08-19T03:16:43;21.97;70.54
67157;SHT31;54086;50.126;8.710;2022-08-19T03:19:08;21.97;70.71
67157;SHT31;54086;50.126;8.710;2022-08-19T03:21:34;21.94;70.84
67157;SHT31;54086;50.126;8.710;2022-08-19T03:24:02;21.98;70.76
67157;SHT31;54086;50.126;8.710;2022-08-19T03:26:29;21.94;70.79
67157;SHT31;54086;50.126;8.710;2022-08-19T03:28:55;21.94;70.93
67157;SHT31;54086;50.126;8.710;2022-08-19T03:31:22;21.96;70.90
67157;SHT31;54086;50.126;8.710;2022-08-19T03:33:51;21.92;71.07
67157;SHT31;54086;50.126;8.710;2022-08-19T03:36:22;21.92;71.07
67157;SHT31;54086;50.126;8.710;2022-08-19T03:38:51;21.96;71.11
67157;SHT31;54086;50.126;8.710;2022-08-19T03:41:20;21.97;71.12
67157;SHT31;54086;50.126;8.710;2022-08-19T03:43:46;21.96;70.96
67157;SHT31;54086;50.126;8.710;2022-08-19T03:46:15;21.98;70.88
67157;SHT31;54086;50.126;8.710;2022-08-19T03:48:43;22.00;70.91
67157;SHT31;54086;50.126;8.710;2022-08-19T03:51:20;21.93;71.16
67157;SHT31;54086;50.126;8.710;2022-08-19T03:53:47;21.94;71.10
67157;SHT31;54086;50.126;8.710;2022-08-19T03:56:13;21.75;71.57
67157;SHT31;54086;50.126;8.710;2022-08-19T03:58:39;21.75;71.57
67157;SHT31;54086;50.126;8.710;2022-08-19T04:01:12;21.67;71.89
67157;SHT31;54086;50.126;8.710;2022-08-19T04:03:39;21.66;71.81
67157;SHT31;54086;50.126;8.710;2022-08-19T04:06:22;21.62;71.99
67157;SHT31;54086;50.126;8.710;2022-08-19T04:08:53;21.63;71.85
67157;SHT31;54086;50.126;8.710;2022-08-19T04:11:22;21.62;71.96
67157;SHT31;54086;50.126;8.710;2022-08-19T04:13:49;21.66;71.83
67157;SHT31;54086;50.126;8.710;2022-08-19T04:16:16;21.59;72.04
67157;SHT31;54086;50.126;8.710;2022-08-19T04:18:42;21.60;72.04
67157;SHT31;54086;50.126;8.710;2022-08-19T04:21:08;21.59;71.94
67157;SHT31;54086;50.126;8.710;2022-08-19T04:23:39;21.62;71.95
67157;SHT31;54086;50.126;8.710;2022-08-19T04:26:05;21.67;71.82
67157;SHT31;54086;50.126;8.710;2022-08-19T04:28:30;21.72;71.62
67157;SHT31;54086;50.126;8.710;2022-08-19T04:30:56;21.67;71.71
67157;SHT31;54086;50.126;8.710;2022-08-19T04:33:24;21.59;72.02
67157;SHT31;54086;50.126;8.710;2022-08-19T04:35:52;21.53;72.09
67157;SHT31;54086;50.126;8.710;2022-08-19T04:38:21;21.50;72.27
67157;SHT31;54086;50.126;8.710;2022-08-19T04:40:50;21.48;72.27
67157;SHT31;54086;50.126;8.710;2022-08-19T04:43:37;21.56;72.04
67157;SHT31;54086;50.126;8.710;2022-08-19T04:46:10;21.67;71.82
67157;SHT31;54086;50.126;8.710;2022-08-19T04:48:37;21.70;71.57
67157;SHT31;54086;50.126;8.710;2022-08-19T04:51:07;21.75;71.48
67157;SHT31;54086;50.126;8.710;2022-08-19T04:53:35;21.67;71.67
67157;SHT31;54086;50.126;8.710;2022-08-19T04:56:05;21.76;71.46
67157;SHT31;54086;50.126;8.710;2022-08-19T04:58:32;21.66;71.75
67157;SHT31;54086;50.126;8.710;2022-08-19T05:00:58;21.60;71.89
67157;SHT31;54086;50.126;8.710;2022-08-19T05:03:25;21.59;72.01
67157;SHT31;54086;50.126;8.710;2022-08-19T05:05:51;21.60;71.98
67157;SHT31;54086;50.126;8.710;2022-08-19T05:08:19;21.65;72.01
67157;SHT31;54086;50.126;8.710;2022-08-19T05:10:49;21.60;71.99
67157;SHT31;54086;50.126;8.710;2022-08-19T05:13:16;21.53;72.12
67157;SHT31;54086;50.126;8.710;2022-08-19T05:15:43;21.66;71.92
67157;SHT31;54086;50.126;8.710;2022-08-19T05:18:09;21.66;71.76
67157;SHT31;54086;50.126;8.710;2022-08-19T05:20:53;21.83;71.42
67157;SHT31;54086;50.126;8.710;2022-08-19T05:23:37;21.79;71.39
67157;SHT31;54086;50.126;8.710;2022-08-19T05:26:03;21.90;71.16
67157;SHT31;54086;50.126;8.710;2022-08-19T05:28:29;21.87;71.25
67157;SHT31;54086;50.126;8.710;2022-08-19T05:30:55;21.87;71.20
67157;SHT31;54086;50.126;8.710;2022-08-19T05:33:21;21.79;71.44
67157;SHT31;54086;50.126;8.710;2022-08-19T05:35:47;21.80;71.38
67157;SHT31;54086;50.126;8.710;2022-08-19T05:38:15;21.90;71.16
67157;SHT31;54086;50.126;8.710;2022-08-19T05:40:40;21.92;71.19
67157;SHT31;54086;50.126;8.710;2022-08-19T05:43:07;21.94;71.00
67157;SHT31;54086;50.126;8.710;2022-08-19T05:45:33;22.03;70.76
67157;SHT31;54086;50.126;8.710;2022-08-19T05:48:02;21.98;70.93
67157;SHT31;54086;50.126;8.710;2022-08-19T05:50:28;21.94;71.03
67157;SHT31;54086;50.126;8.710;2022-08-19T05:52:53;21.98;70.96
67157;SHT31;54086;50.126;8.710;2022-08-19T05:55:19;22.01;70.95
67157;SHT31;54086;50.126;8.710;2022-08-19T05:57:45;22.08;70.64
67157;SHT31;54086;50.126;8.710;2022-08-19T06:00:11;22.07;70.61
67157;SHT31;54086;50.126;8.710;2022-08-19T06:02:37;21.98;70.85
67157;SHT31;54086;50.126;8.710;2022-08-19T06:05:04;22.01;70.64
67157;SHT31;54086;50.126;8.710;2022-08-19T06:07:32;22.06;70.57
67157;SHT31;54086;50.126;8.710;2022-08-19T06:09:58;22.03;70.54
67157;SHT31;54086;50.126;8.710;2022-08-19T06:12:23;22.00;70.83
67157;SHT31;54086;50.126;8.710;2022-08-19T06:14:53;22.11;70.54
67157;SHT31;54086;50.126;8.710;2022-08-19T06:17:20;22.14;70.20
67157;SHT31;54086;50.126;8.710;2022-08-19T06:19:47;22.13;70.37
67157;SHT31;54086;50.126;8.710;2022-08-19T06:22:15;22.17;70.52
67157;SHT31;54086;50.126;8.710;2022-08-19T06:24:40;22.33;69.96
67157;SHT31;54086;50.126;8.710;2022-08-19T06:27:06;22.38;69.58
67157;SHT31;54086;50.126;8.710;2022-08-19T06:29:31;22.49;69.35
67157;SHT31;54086;50.126;8.710;2022-08-19T06:31:59;22.58;69.14
67157;SHT31;54086;50.126;8.710;2022-08-19T06:34:26;22.62;68.83
67157;SHT31;54086;50.126;8.710;2022-08-19T06:36:53;22.58;68.80
67157;SHT31;54086;50.126;8.710;2022-08-19T06:39:28;22.61;68.79
67157;SHT31;54086;50.126;8.710;2022-08-19T06:41:56;22.64;68.54
67157;SHT31;54086;50.126;8.710;2022-08-19T06:44:25;22.66;68.63
67157;SHT31;54086;50.126;8.710;2022-08-19T06:46:54;22.78;68.25
67157;SHT31;54086;50.126;8.710;2022-08-19T06:49:19;22.84;68.08
67157;SHT31;54086;50.126;8.710;2022-08-19T06:51:47;22.92;67.92
67157;SHT31;54086;50.126;8.710;2022-08-19T06:54:13;23.05;67.53
67157;SHT31;54086;50.126;8.710;2022-08-19T06:56:39;22.95;67.62
67157;SHT31;54086;50.126;8.710;2022-08-19T06:59:11;23.09;67.44
67157;SHT31;54086;50.126;8.710;2022-08-19T07:01:43;23.20;66.87
67157;SHT31;54086;50.126;8.710;2022-08-19T07:04:14;23.22;66.79
67157;SHT31;54086;50.126;8.710;2022-08-19T07:06:41;23.23;66.72
67157;SHT31;54086;50.126;8.710;2022-08-19T07:09:08;23.27;66.92
67157;SHT31;54086;50.126;8.710;2022-08-19T07:11:34;23.30;66.75
67157;SHT31;54086;50.126;8.710;2022-08-19T07:14:00;23.31;66.70
67157;SHT31;54086;50.126;8.710;2022-08-19T07:16:26;23.31;66.63
67157;SHT31;54086;50.126;8.710;2022-08-19T07:18:52;23.37;66.50
67157;SHT31;54086;50.126;8.710;2022-08-19T07:21:23;23.43;66.19
67157;SHT31;54086;50.126;8.710;2022-08-19T07:23:50;23.46;66.12
67157;SHT31;54086;50.126;8.710;2022-08-19T07:26:22;23.46;65.63
67157;SHT31;54086;50.126;8.710;2022-08-19T07:28:48;23.64;65.22
67157;SHT31;54086;50.126;8.710;2022-08-19T07:31:17;23.78;64.55
67157;SHT31;54086;50.126;8.710;2022-08-19T07:33:47;23.75;64.23
67157;SHT31;54086;50.126;8.710;2022-08-19T07:36:15;23.78;64.24
67157;SHT31;54086;50.126;8.710;2022-08-19T07:38:45;23.84;64.05
67157;SHT31;54086;50.126;8.710;2022-08-19T07:41:14;23.82;64.02
67157;SHT31;54086;50.126;8.710;2022-08-19T07:43:41;23.85;63.88
67157;SHT31;54086;50.126;8.710;2022-08-19T07:46:08;24.05;63.59
67157;SHT31;54086;50.126;8.710;2022-08-19T07:48:34;24.09;63.26
67157;SHT31;54086;50.126;8.710;2022-08-19T07:51:02;24.29;62.72
67157;SHT31;54086;50.126;8.710;2022-08-19T07:53:30;24.15;62.56
67157;SHT31;54086;50.126;8.710;2022-08-19T07:55:56;24.26;62.30
67157;SHT31;54086;50.126;8.710;2022-08-19T07:58:30;24.18;62.63
67157;SHT31;54086;50.126;8.710;2022-08-19T08:00:57;24.40;62.31
67157;SHT31;54086;50.126;8.710;2022-08-19T08:03:23;24.43;61.53
67157;SHT31;54086;50.126;8.710;2022-08-19T08:06:08;24.64;61.26
67157;SHT31;54086;50.126;8.710;2022-08-19T08:08:51;24.83;60.48
67157;SHT31;54086;50.126;8.710;2022-08-19T08:11:44;25.14;59.74
67157;SHT31;54086;50.126;8.710;2022-08-19T08:14:20;25.83;58.46
67157;SHT31;54086;50.126;8.710;2022-08-19T08:16:47;25.89;57.72
67157;SHT31;54086;50.126;8.710;2022-08-19T08:19:13;25.81;57.73
67157;SHT31;54086;50.126;8.710;2022-08-19T08:21:40;25.78;58.19
67157;SHT31;54086;50.126;8.710;2022-08-19T08:24:06;26.27;56.66
67157;SHT31;54086;50.126;8.710;2022-08-19T08:26:32;26.20;56.80
67157;SHT31;54086;50.126;8.710;2022-08-19T08:28:57;26.04;56.72
67157;SHT31;54086;50.126;8.710;2022-08-19T08:31:23;26.50;55.97
67157;SHT31;54086;50.126;8.710;2022-08-19T08:33:49;26.06;56.41
67157;SHT31;54086;50.126;8.710;2022-08-19T08:36:14;26.26;56.56
67157;SHT31;54086;50.126;8.710;2022-08-19T08:38:42;26.48;55.33
67157;SHT31;54086;50.126;8.710;2022-08-19T08:44:23;25.71;56.64
67157;SHT31;54086;50.126;8.710;2022-08-19T08:47:00;25.89;56.47
67157;SHT31;54086;50.126;8.710;2022-08-19T08:49:44;25.75;56.48
67157;SHT31;54086;50.126;8.710;2022-08-19T08:52:15;25.54;56.96
67157;SHT31;54086;50.126;8.710;2022-08-19T08:54:46;25.65;56.94
67157;SHT31;54086;50.126;8.710;2022-08-19T08:57:15;25.78;56.78
67157;SHT31;54086;50.126;8.710;2022-08-19T08:59:43;26.14;55.83
67157;SHT31;54086;50.126;8.710;2022-08-19T09:02:14;26.78;54.49
67157;SHT31;54086;50.126;8.710;2022-08-19T09:04:39;27.30;53.45
67157;SHT31;54086;50.126;8.710;2022-08-19T09:09:49;27.46;52.98
67157;SHT31;54086;50.126;8.710;2022-08-19T09:12:39;27.36;52.16
67157;SHT31;54086;50.126;8.710;2022-08-19T09:15:12;27.32;52.17
67157;SHT31;54086;50.126;8.710;2022-08-19T09:17:38;26.91;53.10
67157;SHT31;54086;50.126;8.710;2022-08-19T09:22:33;28.38;50.48
67157;SHT31;54086;50.126;8.710;2022-08-19T09:24:59;27.98;50.40
67157;SHT31;54086;50.126;8.710;2022-08-19T09:27:26;27.79;51.63
67157;SHT31;54086;50.126;8.710;2022-08-19T09:29:52;27.87;51.49
67157;SHT31;54086;50.126;8.710;2022-08-19T09:32:19;27.86;51.38
67157;SHT31;54086;50.126;8.710;2022-08-19T09:34:45;27.94;51.05
67157;SHT31;54086;50.126;8.710;2022-08-19T09:37:10;27.74;51.77
67157;SHT31;54086;50.126;8.710;2022-08-19T09:39:37;27.23;53.15
67157;SHT31;54086;50.126;8.710;2022-08-19T09:42:03;27.11;53.85
67157;SHT31;54086;50.126;8.710;2022-08-19T09:44:29;26.80;54.74
67157;SHT31;54086;50.126;8.710;2022-08-19T09:46:55;26.40;55.31
67157;SHT31;54086;50.126;8.710;2022-08-19T09:49:21;26.31;55.99
67157;SHT31;54086;50.126;8.710;2022-08-19T09:51:51;26.47;55.57
67157;SHT31;54086;50.126;8.710;2022-08-19T09:54:17;27.51;53.48
67157;SHT31;54086;50.126;8.710;2022-08-19T09:56:43;27.96;52.24
67157;SHT31;54086;50.126;8.710;2022-08-19T09:59:09;28.49;50.97
67157;SHT31;54086;50.126;8.710;2022-08-19T10:01:35;28.83;49.79
67157;SHT31;54086;50.126;8.710;2022-08-19T10:04:00;28.72;50.20
67157;SHT31;54086;50.126;8.710;2022-08-19T10:06:29;28.55;50.64
67157;SHT31;54086;50.126;8.710;2022-08-19T10:08:59;28.24;51.66
67157;SHT31;54086;50.126;8.710;2022-08-19T10:11:25;28.05;51.90
67157;SHT31;54086;50.126;8.710;2022-08-19T10:13:52;27.36;52.76
67157;SHT31;54086;50.126;8.710;2022-08-19T10:16:20;27.23;52.89
67157;SHT31;54086;50.126;8.710;2022-08-19T10:18:47;27.67;52.38
67157;SHT31;54086;50.126;8.710;2022-08-19T10:21:23;27.76;52.15
67157;SHT31;54086;50.126;8.710;2022-08-19T10:23:50;27.88;52.03
67157;SHT31;54086;50.126;8.710;2022-08-19T10:26:19;28.45;50.68
67157;SHT31;54086;50.126;8.710;2022-08-19T10:28:45;28.49;50.20
67157;SHT31;54086;50.126;8.710;2022-08-19T10:31:13;28.97;48.71
67157;SHT31;54086;50.126;8.710;2022-08-19T10:33:40;29.13;48.08
67157;SHT31;54086;50.126;8.710;2022-08-19T10:36:10;29.59;46.77
67157;SHT31;54086;50.126;8.710;2022-08-19T10:38:36;29.99;45.94
67157;SHT31;54086;50.126;8.710;2022-08-19T10:41:19;30.02;46.11
67157;SHT31;54086;50.126;8.710;2022-08-19T10:43:45;29.81;46.71
67157;SHT31;54086;50.126;8.710;2022-08-19T10:46:13;30.02;46.21
67157;SHT31;54086;50.126;8.710;2022-08-19T10:48:40;29.23;48.07
67157;SHT31;54086;50.126;8.710;2022-08-19T10:51:05;28.96;48.71
67157;SHT31;54086;50.126;8.710;2022-08-19T10:53:50;28.47;49.21
67157;SHT31;54086;50.126;8.710;2022-08-19T10:56:16;28.11;49.95
67157;SHT31;54086;50.126;8.710;2022-08-19T10:59:00;28.35;50.04
67157;SHT31;54086;50.126;8.710;2022-08-19T11:01:28;28.29;49.79
67157;SHT31;54086;50.126;8.710;2022-08-19T11:03:55;28.78;48.56
67157;SHT31;54086;50.126;8.710;2022-08-19T11:06:23;29.13;48.10
67157;SHT31;54086;50.126;8.710;2022-08-19T11:08:50;30.19;46.24
67157;SHT31;54086;50.126;8.710;2022-08-19T11:11:15;30.27;46.10
67157;SHT31;54086;50.126;8.710;2022-08-19T11:13:42;29.64;47.01
67157;SHT31;54086;50.126;8.710;2022-08-19T11:16:16;28.73;46.96
67157;SHT31;54086;50.126;8.710;2022-08-19T11:18:44;28.25;47.61
67157;SHT31;54086;50.126;8.710;2022-08-19T11:21:31;28.08;47.79
67157;SHT31;54086;50.126;8.710;2022-08-19T11:24:00;29.20;46.13
67157;SHT31;54086;50.126;8.710;2022-08-19T11:26:28;29.67;45.71
67157;SHT31;54086;50.126;8.710;2022-08-19T11:28:54;30.20;44.93
67157;SHT31;54086;50.126;8.710;2022-08-19T11:31:25;30.78;43.95
67157;SHT31;54086;50.126;8.710;2022-08-19T11:33:50;30.78;43.92
67157;SHT31;54086;50.126;8.710;2022-08-19T11:36:18;30.87;44.13
67157;SHT31;54086;50.126;8.710;2022-08-19T11:38:45;30.09;45.60
67157;SHT31;54086;50.126;8.710;2022-08-19T11:41:14;29.72;45.66
67157;SHT31;54086;50.126;8.710;2022-08-19T11:43:40;30.57;44.00
67157;SHT31;54086;50.126;8.710;2022-08-19T11:46:07;30.68;43.29
67157;SHT31;54086;50.126;8.710;2022-08-19T11:48:34;31.18;42.64
67157;SHT31;54086;50.126;8.710;2022-08-19T11:51:04;31.59;41.86
67157;SHT31;54086;50.126;8.710;2022-08-19T11:53:31;32.17;40.47
67157;SHT31;54086;50.126;8.710;2022-08-19T11:55:57;31.72;40.58
67157;SHT31;54086;50.126;8.710;2022-08-19T11:58:22;31.79;40.78
67157;SHT31;54086;50.126;8.710;2022-08-19T12:00:48;31.19;42.35
67157;SHT31;54086;50.126;8.710;2022-08-19T12:03:14;30.29;43.73
67157;SHT31;54086;50.126;8.710;2022-08-19T12:05:40;29.55;44.75
67157;SHT31;54086;50.126;8.710;2022-08-19T12:08:07;29.34;45.12
67157;SHT31;54086;50.126;8.710;2022-08-19T12:10:34;29.09;45.80
67157;SHT31;54086;50.126;8.710;2022-08-19T12:13:00;28.78;45.07
67157;SHT31;54086;50.126;8.710;2022-08-19T12:15:26;30.02;42.93
67157;SHT31;54086;50.126;8.710;2022-08-19T12:17:53;31.01;40.61
67157;SHT31;54086;50.126;8.710;2022-08-19T12:20:22;31.62;39.10
67157;SHT31;54086;50.126;8.710;2022-08-19T12:22:47;31.87;38.81
67157;SHT31;54086;50.126;8.710;2022-08-19T12:25:13;31.58;39.52
67157;SHT31;54086;50.126;8.710;2022-08-19T12:27:39;30.99;40.81
67157;SHT31;54086;50.126;8.710;2022-08-19T12:30:06;30.06;42.70
67157;SHT31;54086;50.126;8.710;2022-08-19T12:32:32;29.92;42.99
67157;SHT31;54086;50.126;8.710;2022-08-19T12:34:57;30.27;42.40
67157;SHT31;54086;50.126;8.710;2022-08-19T12:37:23;31.02;41.27
67157;SHT31;54086;50.126;8.710;2022-08-19T12:39:48;31.53;39.66
67157;SHT31;54086;50.126;8.710;2022-08-19T12:42:14;32.09;38.75
67157;SHT31;54086;50.126;8.710;2022-08-19T12:44:42;32.64;37.66
67157;SHT31;54086;50.126;8.710;2022-08-19T12:47:09;31.35;38.92
67157;SHT31;54086;50.126;8.710;2022-08-19T12:49:35;31.39;39.12
67157;SHT31;54086;50.126;8.710;2022-08-19T12:52:03;31.87;38.57
67157;SHT31;54086;50.126;8.710;2022-08-19T12:54:29;32.23;38.31
67157;SHT31;54086;50.126;8.710;2022-08-19T12:56:56;32.72;37.42
67157;SHT31;54086;50.126;8.710;2022-08-19T12:59:22;33.12;36.90
67157;SHT31;54086;50.126;8.710;2022-08-19T13:01:48;32.85;37.13
67157;SHT31;54086;50.126;8.710;2022-08-19T13:04:13;32.09;38.18
67157;SHT31;54086;50.126;8.710;2022-08-19T13:06:39;31.53;39.27
67157;SHT31;54086;50.126;8.710;2022-08-19T13:09:04;30.56;40.85
67157;SHT31;54086;50.126;8.710;2022-08-19T13:11:30;29.75;42.34
67157;SHT31;54086;50.126;8.710;2022-08-19T13:13:59;29.78;42.20
67157;SHT31;54086;50.126;8.710;2022-08-19T13:16:25;29.62;42.52
67157;SHT31;54086;50.126;8.710;2022-08-19T13:18:52;29.71;42.46
67157;SHT31;54086;50.126;8.710;2022-08-19T13:21:24;29.61;41.82
67157;SHT31;54086;50.126;8.710;2022-08-19T13:23:51;29.46;41.73
67157;SHT31;54086;50.126;8.710;2022-08-19T13:26:17;29.62;40.41
67157;SHT31;54086;50.126;8.710;2022-08-19T13:28:43;30.71;39.29
67157;SHT31;54086;50.126;8.710;2022-08-19T13:31:30;32.17;36.73
67157;SHT31;54086;50.126;8.710;2022-08-19T13:34:16;32.06;36.54
67157;SHT31;54086;50.126;8.710;2022-08-19T13:36:42;31.58;37.37
67157;SHT31;54086;50.126;8.710;2022-08-19T13:39:08;31.69;37.14
67157;SHT31;54086;50.126;8.710;2022-08-19T13:41:35;30.88;38.58
67157;SHT31;54086;50.126;8.710;2022-08-19T13:44:01;30.74;38.94
67157;SHT31;54086;50.126;8.710;2022-08-19T13:46:27;30.57;39.76
67157;SHT31;54086;50.126;8.710;2022-08-19T13:48:54;29.95;41.02
67157;SHT31;54086;50.126;8.710;2022-08-19T13:51:20;29.61;41.67
67157;SHT31;54086;50.126;8.710;2022-08-19T13:53:45;29.46;42.04
67157;SHT31;54086;50.126;8.710;2022-08-19T13:56:13;29.43;42.31
67157;SHT31;54086;50.126;8.710;2022-08-19T13:58:39;29.41;42.14
67157;SHT31;54086;50.126;8.710;2022-08-19T14:01:05;29.34;42.14
67157;SHT31;54086;50.126;8.710;2022-08-19T14:03:32;29.54;42.23
67157;SHT31;54086;50.126;8.710;2022-08-19T14:05:58;30.19;40.98
67157;SHT31;54086;50.126;8.710;2022-08-19T14:08:25;31.24;38.57
67157;SHT31;54086;50.126;8.710;2022-08-19T14:10:53;32.27;37.44
67157;SHT31;54086;50.126;8.710;2022-08-19T14:13:20;31.62;37.74
67157;SHT31;54086;50.126;8.710;2022-08-19T14:15:46;32.47;36.79
67157;SHT31;54086;50.126;8.710;2022-08-19T14:18:13;32.27;36.87
67157;SHT31;54086;50.126;8.710;2022-08-19T14:20:39;31.47;38.07
67157;SHT31;54086;50.126;8.710;2022-08-19T14:23:04;31.31;38.36
67157;SHT31;54086;50.126;8.710;2022-08-19T14:25:33;31.01;38.81
67157;SHT31;54086;50.126;8.710;2022-08-19T14:27:59;30.77;39.03
67157;SHT31;54086;50.126;8.710;2022-08-19T14:30:28;31.45;37.80
67157;SHT31;54086;50.126;8.710;2022-08-19T14:32:55;31.29;37.87
67157;SHT31;54086;50.126;8.710;2022-08-19T14:35:21;30.91;38.88
67157;SHT31;54086;50.126;8.710;2022-08-19T14:37:47;30.70;38.82
67157;SHT31;54086;50.126;8.710;2022-08-19T14:40:16;30.48;39.20
67157;SHT31;54086;50.126;8.710;2022-08-19T14:42:43;30.29;39.53
67157;SHT31;54086;50.126;8.710;2022-08-19T14:45:10;29.96;40.62
67157;SHT31;54086;50.126;8.710;2022-08-19T14:47:36;30.05;40.58
67157;SHT31;54086;50.126;8.710;2022-08-19T14:50:04;29.89;40.18
67157;SHT31;54086;50.126;8.710;2022-08-19T14:52:32;29.86;40.37
67157;SHT31;54086;50.126;8.710;2022-08-19T14:54:58;30.25;39.56
67157;SHT31;54086;50.126;8.710;2022-08-19T14:57:23;30.94;38.76
67157;SHT31;54086;50.126;8.710;2022-08-19T14:59:48;31.10;38.30
67157;SHT31;54086;50.126;8.710;2022-08-19T15:02:14;31.24;37.97
67157;SHT31;54086;50.126;8.710;2022-08-19T15:04:40;31.59;37.91
67157;SHT31;54086;50.126;8.710;2022-08-19T15:07:05;32.06;36.73
67157;SHT31;54086;50.126;8.710;2022-08-19T15:09:32;31.97;36.57
67157;SHT31;54086;50.126;8.710;2022-08-19T15:11:58;31.14;37.40
67157;SHT31;54086;50.126;8.710;2022-08-19T15:14:25;30.75;37.95
67157;SHT31;54086;50.126;8.710;2022-08-19T15:16:51;30.75;38.33
67157;SHT31;54086;50.126;8.710;2022-08-19T15:19:16;30.43;38.62
67157;SHT31;54086;50.126;8.710;2022-08-19T15:21:42;30.36;38.13
67157;SHT31;54086;50.126;8.710;2022-08-19T15:24:08;30.78;37.59
67157;SHT31;54086;50.126;8.710;2022-08-19T15:26:34;30.84;37.30
67157;SHT31;54086;50.126;8.710;2022-08-19T15:29:00;30.97;37.25
67157;SHT31;54086;50.126;8.710;2022-08-19T15:31:27;31.47;37.24
67157;SHT31;54086;50.126;8.710;2022-08-19T15:33:53;31.62;36.97
67157;SHT31;54086;50.126;8.710;2022-08-19T15:36:22;31.52;37.30
67157;SHT31;54086;50.126;8.710;2022-08-19T15:38:48;31.28;36.91
67157;SHT31;54086;50.126;8.710;2022-08-19T15:41:18;30.75;37.90